Time;durP1;ratioP1;P1;durP2;ratioP2;P2;SDS_P1;SDS_P2;PMS_P1;PMS_P2;Temp;Humidity;BMP_temperature;BMP_pressure;BME280_temperature;BME280_humidity;BME280_pressure;Samples;Min_cycle;Max_cycle;Signal;HPM_P1;HPM_P2
2021/09/17 00:00:15;;;;;;;3.53;1.20;;;21.30;99.90;;;;;;6185846;23;20157;-91
2021/09/17 00:02:56;;;;;;;2.97;1.07;;;21.10;99.90;;;;;;6202083;23;20201;-90
2021/09/17 00:05:27;;;;;;;6.27;1.00;;;21.00;99.90;;;;;;6202003;23;20184;-90
2021/09/17 00:08:01;;;;;;;2.67;0.77;;;20.80;99.90;;;;;;6185236;23;20607;-91
2021/09/17 00:10:32;;;;;;;3.40;1.40;;;20.60;99.90;;;;;;6188232;23;20197;-92
2021/09/17 00:13:04;;;;;;;4.17;1.47;;;20.60;99.90;;;;;;6212783;23;20204;-90
2021/09/17 00:15:38;;;;;;;5.53;1.77;;;20.30;99.90;;;;;;6206573;23;20173;-91
2021/09/17 00:18:10;;;;;;;2.93;1.10;;;20.00;99.90;;;;;;6203477;23;20169;-90
2021/09/17 00:20:42;;;;;;;2.90;1.00;;;20.00;99.90;;;;;;6176688;23;20191;-90
2021/09/17 00:23:14;;;;;;;2.47;1.03;;;19.80;99.90;;;;;;6202420;23;20200;-90
2021/09/17 00:28:43;;;;;;;3.33;1.33;;;19.70;99.90;;;;;;6208015;23;20187;-90
2021/09/17 00:31:17;;;;;;;3.93;1.20;;;19.60;99.90;;;;;;6196159;23;20161;-90
2021/09/17 00:33:48;;;;;;;4.53;1.27;;;19.50;99.90;;;;;;6201813;23;20181;-90
2021/09/17 00:36:20;;;;;;;2.87;1.00;;;19.50;99.90;;;;;;6204282;23;20185;-90
2021/09/17 00:39:06;;;;;;;3.50;1.00;;;19.40;99.90;;;;;;6206065;23;20168;-90
2021/09/17 00:41:40;;;;;;;3.80;1.10;;;19.30;99.90;;;;;;6203780;23;20232;-90
2021/09/17 00:44:12;;;;;;;2.87;1.10;;;19.20;99.90;;;;;;6171741;23;20177;-90
2021/09/17 00:46:47;;;;;;;4.17;1.10;;;19.10;99.90;;;;;;6205108;23;20169;-90
2021/09/17 00:49:18;;;;;;;3.10;1.00;;;19.10;99.90;;;;;;6163317;23;20169;-89
2021/09/17 00:51:50;;;;;;;2.63;1.07;;;19.00;99.90;;;;;;6187836;23;20181;-90
2021/09/17 00:54:22;;;;;;;4.00;1.30;;;18.90;99.90;;;;;;6164174;23;20185;-90
2021/09/17 00:59:41;;;;;;;2.97;1.20;;;18.70;99.90;;;;;;6239384;23;20181;-89
2021/09/17 01:02:28;;;;;;;2.70;1.00;;;18.70;99.90;;;;;;6236915;23;20200;-90
2021/09/17 01:05:02;;;;;;;2.13;1.00;;;18.60;99.90;;;;;;6237423;23;20182;-89
2021/09/17 01:07:34;;;;;;;4.50;1.53;;;18.50;99.90;;;;;;6230966;23;20165;-89
2021/09/17 01:10:06;;;;;;;2.87;1.20;;;18.40;99.90;;;;;;6224337;23;20181;-88
2021/09/17 01:12:38;;;;;;;2.83;1.47;;;18.30;99.90;;;;;;6224834;23;20604;-89
2021/09/17 01:15:12;;;;;;;3.57;1.33;;;18.20;99.90;;;;;;6196961;23;20186;-91
2021/09/17 01:17:48;;;;;;;5.73;1.60;;;18.10;99.90;;;;;;6232826;23;20179;-90
2021/09/17 01:20:22;;;;;;;2.43;1.27;;;18.00;99.90;;;;;;6237640;23;20174;-93
2021/09/17 01:22:56;;;;;;;4.13;1.30;;;18.00;99.90;;;;;;6239035;23;20619;-90
2021/09/17 01:25:55;;;;;;;5.97;1.30;;;17.90;99.90;;;;;;6241636;22;20184;-90
2021/09/17 01:28:30;;;;;;;1.73;0.80;;;17.90;99.90;;;;;;6240524;22;20172;-90
2021/09/17 01:31:05;;;;;;;4.47;0.97;;;17.80;99.90;;;;;;6228758;22;20599;-89
2021/09/17 01:33:36;;;;;;;3.77;1.70;;;17.80;99.90;;;;;;6220369;23;20615;-88
2021/09/17 01:36:10;;;;;;;3.40;1.03;;;17.70;99.90;;;;;;6194489;23;20251;-92
2021/09/17 01:38:46;;;;;;;3.63;0.90;;;17.70;99.90;;;;;;6232518;23;20214;-94
2021/09/17 01:41:20;;;;;;;5.33;1.40;;;17.60;99.90;;;;;;6212180;23;20214;-94
2021/09/17 01:43:55;;;;;;;3.87;1.30;;;17.50;99.90;;;;;;6241673;23;20203;-94
2021/09/17 01:46:27;;;;;;;4.57;1.10;;;17.40;99.90;;;;;;6239421;22;20168;-94
2021/09/17 01:48:58;;;;;;;3.50;1.33;;;17.40;99.90;;;;;;6240291;23;20180;-95
2021/09/17 01:51:30;;;;;;;3.90;1.17;;;17.30;99.90;;;;;;6240473;23;20172;-93
2021/09/17 01:54:05;;;;;;;3.60;1.40;;;17.20;99.90;;;;;;6241065;22;20171;-92
2021/09/17 01:56:37;;;;;;;5.63;1.30;;;17.10;99.90;;;;;;6215886;23;20172;-93
2021/09/17 01:59:09;;;;;;;4.13;1.10;;;17.00;99.90;;;;;;6242084;22;20157;-94
2021/09/17 02:01:40;;;;;;;2.37;1.00;;;16.90;99.90;;;;;;6241556;22;20175;-94
2021/09/17 02:04:13;;;;;;;3.67;1.00;;;16.80;99.90;;;;;;6241515;22;20196;-91
2021/09/17 02:06:44;;;;;;;2.40;1.03;;;16.70;99.90;;;;;;6239902;23;20165;-93
2021/09/17 02:09:18;;;;;;;3.87;0.97;;;16.70;99.90;;;;;;6239523;23;20149;-93
2021/09/17 02:11:50;;;;;;;3.03;1.27;;;16.60;99.90;;;;;;6232219;23;20175;-93
2021/09/17 02:14:21;;;;;;;3.80;1.23;;;16.40;99.90;;;;;;6237270;22;20186;-93
2021/09/17 02:16:54;;;;;;;3.93;1.20;;;16.30;99.90;;;;;;6241007;22;20169;-92
2021/09/17 02:19:27;;;;;;;1.97;1.20;;;16.30;99.90;;;;;;6239235;23;20165;-92
2021/09/17 02:21:58;;;;;;;3.00;1.10;;;16.20;99.90;;;;;;6236003;23;20290;-90
2021/09/17 02:24:32;;;;;;;5.80;1.43;;;16.10;99.90;;;;;;6210629;23;20884;-91
2021/09/17 02:27:04;;;;;;;6.70;1.73;;;16.10;99.90;;;;;;6239801;22;20227;-90
2021/09/17 02:29:36;;;;;;;3.20;1.47;;;16.00;99.90;;;;;;6242181;22;20209;-92
2021/09/17 02:32:07;;;;;;;4.70;2.00;;;15.90;99.90;;;;;;6242659;22;20164;-92
2021/09/17 02:34:39;;;;;;;4.60;2.03;;;15.80;99.90;;;;;;6241615;22;20172;-92
2021/09/17 02:37:11;;;;;;;7.50;1.77;;;15.70;99.90;;;;;;6242626;22;20168;-92
2021/09/17 02:39:47;;;;;;;3.83;1.40;;;15.70;99.90;;;;;;6239040;23;20557;-92
2021/09/17 02:42:20;;;;;;;2.63;1.53;;;15.60;99.90;;;;;;6238793;23;20224;-91
2021/09/17 02:47:26;;;;;;;5.77;1.77;;;15.50;99.90;;;;;;6246017;22;20196;-92
2021/09/17 02:49:57;;;;;;;4.83;1.73;;;15.50;99.90;;;;;;6234418;23;20211;-92
2021/09/17 02:52:29;;;;;;;4.17;1.70;;;15.50;99.90;;;;;;6236906;23;20205;-92
2021/09/17 02:55:12;;;;;;;5.50;3.13;;;15.50;99.90;;;;;;6241936;23;20157;-92
2021/09/17 02:57:45;;;;;;;8.80;2.30;;;15.40;99.90;;;;;;6241158;23;20177;-92
2021/09/17 03:00:17;;;;;;;6.00;1.93;;;15.40;99.90;;;;;;6190982;23;20173;-92
2021/09/17 03:05:33;;;;;;;2.93;1.60;;;15.30;99.90;;;;;;6227696;23;20227;-88
2021/09/17 03:08:08;;;;;;;5.13;1.60;;;15.30;99.90;;;;;;6241788;23;20175;-93
2021/09/17 03:10:44;;;;;;;5.23;1.30;;;15.20;99.90;;;;;;6233419;23;20611;-93
2021/09/17 03:13:17;;;;;;;3.53;1.20;;;15.20;99.90;;;;;;6235164;23;20219;-93
2021/09/17 03:15:49;;;;;;;4.30;1.60;;;15.20;99.90;;;;;;6209968;23;20250;-92
2021/09/17 03:18:24;;;;;;;4.20;1.47;;;15.20;99.90;;;;;;6240244;23;20176;-91
2021/09/17 03:20:55;;;;;;;3.77;1.63;;;15.10;99.90;;;;;;6238597;23;20176;-94
2021/09/17 03:23:34;;;;;;;4.10;1.83;;;15.00;99.90;;;;;;6240762;23;20227;-93
2021/09/17 03:26:09;;;;;;;5.27;1.70;;;15.00;99.90;;;;;;6192705;23;20187;-94
2021/09/17 03:28:41;;;;;;;4.47;1.70;;;15.00;99.90;;;;;;6215479;23;20164;-93
2021/09/17 03:31:30;;;;;;;4.87;1.70;;;15.00;99.90;;;;;;6240363;23;20200;-93
2021/09/17 03:34:09;;;;;;;3.27;1.40;;;15.00;99.90;;;;;;6237354;23;20187;-93
2021/09/17 03:36:43;;;;;;;6.73;2.70;;;15.00;99.90;;;;;;6235338;23;20175;-94
2021/09/17 03:39:16;;;;;;;5.53;2.60;;;15.00;99.90;;;;;;6235640;23;20175;-95
2021/09/17 03:41:49;;;;;;;5.23;2.30;;;14.90;99.90;;;;;;6233634;23;20200;-95
2021/09/17 03:44:22;;;;;;;3.40;2.10;;;14.90;99.90;;;;;;6237361;23;20187;-95
2021/09/17 03:46:54;;;;;;;5.47;2.30;;;14.90;99.90;;;;;;6234696;23;20236;-94
2021/09/17 03:49:25;;;;;;;4.37;2.03;;;14.90;99.90;;;;;;6233178;23;20176;-94
2021/09/17 03:51:56;;;;;;;3.33;1.80;;;14.80;99.90;;;;;;6234073;23;20176;-94
2021/09/17 03:54:27;;;;;;;3.93;1.90;;;14.80;99.90;;;;;;6226535;23;20484;-94
2021/09/17 03:57:02;;;;;;;3.97;2.00;;;14.80;99.90;;;;;;6234627;23;20194;-94
2021/09/17 03:59:36;;;;;;;4.83;2.37;;;14.70;99.90;;;;;;6230406;23;20430;-95
2021/09/17 04:02:09;;;;;;;4.50;1.97;;;14.70;99.90;;;;;;6233158;23;20179;-95
2021/09/17 04:04:41;;;;;;;3.83;1.90;;;14.60;99.90;;;;;;6231178;23;20263;-95
2021/09/17 04:07:14;;;;;;;5.40;1.90;;;14.60;99.90;;;;;;6232723;23;20193;-94
2021/09/17 04:09:49;;;;;;;2.43;1.80;;;14.60;99.90;;;;;;6233076;23;20211;-94
2021/09/17 04:12:25;;;;;;;7.23;2.70;;;14.60;99.90;;;;;;6233815;23;20175;-94
2021/09/17 04:15:01;;;;;;;7.80;2.37;;;14.50;99.90;;;;;;6209698;23;20192;-94
2021/09/17 04:17:35;;;;;;;3.60;2.23;;;14.40;99.90;;;;;;6234423;23;20176;-94
2021/09/17 04:20:09;;;;;;;5.23;2.60;;;14.40;99.90;;;;;;6232282;23;20213;-95
2021/09/17 04:22:41;;;;;;;5.10;2.23;;;14.40;99.90;;;;;;6232582;23;20247;-95
2021/09/17 04:25:15;;;;;;;5.47;2.90;;;14.40;99.90;;;;;;6232697;23;20201;-94
2021/09/17 04:27:49;;;;;;;5.97;2.60;;;14.40;99.90;;;;;;6233094;23;20169;-94
2021/09/17 04:30:22;;;;;;;5.90;2.70;;;14.40;99.90;;;;;;6200699;23;20191;-95
2021/09/17 04:32:56;;;;;;;5.60;3.17;;;14.40;99.90;;;;;;6229526;23;20176;-95
2021/09/17 04:35:31;;;;;;;8.13;3.60;;;14.40;99.90;;;;;;6234291;23;20168;-96
2021/09/17 04:38:03;;;;;;;6.03;3.30;;;14.40;99.90;;;;;;6208886;23;20168;-95
2021/09/17 04:40:34;;;;;;;4.30;2.47;;;14.40;99.90;;;;;;6203423;23;20177;-96
2021/09/17 04:43:14;;;;;;;5.97;2.93;;;14.30;99.90;;;;;;6226706;23;20176;-96
2021/09/17 04:45:45;;;;;;;5.50;2.23;;;14.30;99.90;;;;;;6242557;23;20196;-96
2021/09/17 04:48:17;;;;;;;5.57;2.03;;;14.30;99.90;;;;;;6241683;23;20211;-94
2021/09/17 04:50:49;;;;;;;8.70;2.50;;;14.20;99.90;;;;;;6233820;23;20426;-93
2021/09/17 04:53:23;;;;;;;6.70;2.30;;;14.30;99.90;;;;;;6221551;23;20172;-94
2021/09/17 04:55:58;;;;;;;3.80;2.03;;;14.20;99.90;;;;;;6237574;23;20188;-94
2021/09/17 04:58:48;;;;;;;3.83;1.83;;;14.30;99.90;;;;;;6241689;23;20168;-91
2021/09/17 05:01:21;;;;;;;4.33;1.73;;;14.30;99.90;;;;;;6240540;23;20179;-93
2021/09/17 05:03:53;;;;;;;5.30;1.83;;;14.20;99.90;;;;;;6239562;23;20188;-94
2021/09/17 05:06:25;;;;;;;4.87;2.00;;;14.10;99.90;;;;;;6204434;23;20184;-93
2021/09/17 05:08:57;;;;;;;3.77;1.50;;;14.00;99.90;;;;;;6200287;23;20181;-94
2021/09/17 05:11:31;;;;;;;8.17;2.43;;;14.10;99.90;;;;;;6199525;23;20211;-94
2021/09/17 05:14:05;;;;;;;5.23;1.80;;;14.00;99.90;;;;;;6189682;23;20196;-94
2021/09/17 05:16:37;;;;;;;6.97;2.13;;;14.00;99.90;;;;;;6194255;23;20181;-94
2021/09/17 05:19:09;;;;;;;5.93;2.00;;;14.00;99.90;;;;;;6192710;23;20165;-94
2021/09/17 05:24:21;;;;;;;11.33;2.93;;;14.00;99.90;;;;;;6230893;22;20291;-93
2021/09/17 05:26:53;;;;;;;10.93;3.03;;;14.00;99.90;;;;;;6234320;23;20173;-89
2021/09/17 05:29:33;;;;;;;9.43;2.93;;;14.00;99.90;;;;;;6232846;23;20185;-88
2021/09/17 05:34:48;;;;;;;5.17;2.60;;;14.00;99.90;;;;;;6230638;23;20214;-88
2021/09/17 05:37:22;;;;;;;6.63;2.67;;;14.00;99.90;;;;;;6204810;23;20183;-88
2021/09/17 05:39:53;;;;;;;4.87;2.57;;;14.00;99.90;;;;;;6227525;23;20182;-90
2021/09/17 05:42:26;;;;;;;6.93;2.10;;;14.00;99.90;;;;;;6231109;23;20173;-95
2021/09/17 05:45:01;;;;;;;5.23;2.30;;;14.00;99.90;;;;;;6222944;23;20575;-94
2021/09/17 05:47:32;;;;;;;7.03;2.33;;;14.00;99.90;;;;;;6191563;23;20198;-95
2021/09/17 05:50:04;;;;;;;5.70;1.77;;;14.00;99.90;;;;;;6218475;23;20172;-96
2021/09/17 05:52:37;;;;;;;5.37;2.23;;;13.90;99.90;;;;;;6216856;23;20196;-95
2021/09/17 05:55:10;;;;;;;3.97;2.00;;;13.90;99.90;;;;;;6192982;23;20204;-95
2021/09/17 05:57:42;;;;;;;2.73;1.77;;;13.90;99.90;;;;;;6218167;23;20207;-95
2021/09/17 06:00:18;;;;;;;4.40;2.30;;;14.00;99.90;;;;;;6219077;23;20165;-95
2021/09/17 06:02:48;;;;;;;6.43;1.90;;;14.00;99.90;;;;;;6220006;23;20183;-95
2021/09/17 06:05:21;;;;;;;4.97;2.07;;;13.90;99.90;;;;;;6219615;23;20693;-95
2021/09/17 06:07:52;;;;;;;5.23;2.00;;;13.90;99.90;;;;;;6219103;23;20583;-94
2021/09/17 06:10:23;;;;;;;4.97;2.27;;;13.90;99.90;;;;;;6194144;23;20225;-94
2021/09/17 06:12:55;;;;;;;2.73;2.13;;;13.90;99.90;;;;;;6218941;23;20238;-94
2021/09/17 06:15:28;;;;;;;4.97;2.00;;;13.90;99.90;;;;;;6194122;23;20169;-93
2021/09/17 06:17:59;;;;;;;5.63;2.13;;;13.90;99.90;;;;;;6228486;23;20180;-94
2021/09/17 06:20:30;;;;;;;7.33;2.20;;;13.80;99.90;;;;;;6220431;23;20193;-95
2021/09/17 06:23:03;;;;;;;4.43;2.00;;;13.80;99.90;;;;;;6219969;23;20223;-94
2021/09/17 06:25:35;;;;;;;10.00;2.00;;;13.80;99.90;;;;;;6220263;23;20654;-94
2021/09/17 06:28:08;;;;;;;4.87;1.80;;;13.80;99.90;;;;;;6220920;23;20173;-93
2021/09/17 06:30:42;;;;;;;4.90;1.63;;;13.80;99.90;;;;;;6219971;23;20186;-94
2021/09/17 06:33:13;;;;;;;6.87;2.07;;;13.80;99.90;;;;;;6220926;23;20200;-93
2021/09/17 06:35:44;;;;;;;5.57;2.13;;;13.80;99.90;;;;;;6220590;23;20638;-94
2021/09/17 06:38:16;;;;;;;7.70;2.30;;;13.90;99.90;;;;;;6220179;23;20697;-95
2021/09/17 06:40:48;;;;;;;7.80;1.90;;;13.90;99.90;;;;;;6221916;23;20196;-95
2021/09/17 06:43:19;;;;;;;6.93;1.90;;;13.80;99.90;;;;;;6220901;23;20180;-94
2021/09/17 06:45:53;;;;;;;3.93;2.00;;;13.80;99.90;;;;;;6222736;23;20227;-95
2021/09/17 06:48:24;;;;;;;8.37;1.90;;;13.80;99.90;;;;;;6231339;23;20164;-96
2021/09/17 06:50:56;;;;;;;10.97;2.83;;;13.80;99.90;;;;;;6241969;23;20164;-96
2021/09/17 06:53:27;;;;;;;4.00;1.80;;;13.80;99.90;;;;;;6242583;23;20199;-94
2021/09/17 06:56:00;;;;;;;3.27;2.00;;;13.80;99.90;;;;;;6217998;23;20156;-93
2021/09/17 06:58:32;;;;;;;7.00;1.80;;;13.80;99.90;;;;;;6243288;23;20208;-95
2021/09/17 07:01:07;;;;;;;5.37;1.97;;;13.80;99.90;;;;;;6243008;23;20225;-95
2021/09/17 07:03:39;;;;;;;4.73;1.70;;;13.70;99.90;;;;;;6217470;23;20187;-96
2021/09/17 07:06:10;;;;;;;4.30;1.87;;;13.70;99.90;;;;;;6217427;23;20191;-95
2021/09/17 07:08:41;;;;;;;4.90;1.87;;;13.60;99.90;;;;;;6227781;23;20173;-95
2021/09/17 07:11:12;;;;;;;5.37;1.87;;;13.60;99.90;;;;;;6219204;23;20184;-94
2021/09/17 07:13:49;;;;;;;5.43;1.83;;;13.60;99.90;;;;;;6219084;23;20176;-94
2021/09/17 07:16:22;;;;;;;4.57;1.70;;;13.70;99.90;;;;;;6218905;23;20238;-94
2021/09/17 07:18:53;;;;;;;4.30;1.90;;;13.60;99.90;;;;;;6169988;23;20204;-94
2021/09/17 07:21:24;;;;;;;3.43;1.50;;;13.70;99.90;;;;;;6218082;23;20176;-93
2021/09/17 07:23:55;;;;;;;3.80;1.60;;;13.70;99.90;;;;;;6218825;23;20191;-92
2021/09/17 07:26:27;;;;;;;7.17;2.03;;;13.60;99.90;;;;;;6219047;23;20196;-92
2021/09/17 07:28:59;;;;;;;6.07;1.87;;;13.60;99.90;;;;;;6193095;23;20248;-94
2021/09/17 07:31:33;;;;;;;4.30;1.60;;;13.60;99.90;;;;;;6219286;23;20175;-94
2021/09/17 07:34:05;;;;;;;3.33;1.80;;;13.60;99.90;;;;;;6232765;23;20184;-93
2021/09/17 07:36:39;;;;;;;4.93;1.80;;;13.60;99.90;;;;;;6227018;23;20183;-93
2021/09/17 07:39:11;;;;;;;4.70;2.40;;;13.50;99.90;;;;;;6201930;23;20176;-93
2021/09/17 07:41:43;;;;;;;3.80;1.63;;;13.50;99.90;;;;;;6217267;23;20214;-95
2021/09/17 07:44:15;;;;;;;3.60;1.67;;;13.60;99.90;;;;;;6218189;23;20180;-95
2021/09/17 07:46:49;;;;;;;5.13;1.77;;;13.60;99.90;;;;;;6217575;23;20220;-95
2021/09/17 07:49:20;;;;;;;5.13;1.87;;;13.60;99.90;;;;;;6218294;23;20519;-94
2021/09/17 07:51:51;;;;;;;4.00;1.67;;;13.60;99.90;;;;;;6216940;23;20184;-94
2021/09/17 07:54:23;;;;;;;6.53;2.20;;;13.60;99.90;;;;;;6218247;23;20176;-94
2021/09/17 07:56:55;;;;;;;5.93;1.87;;;13.60;99.90;;;;;;6230386;23;20168;-93
2021/09/17 07:59:29;;;;;;;3.37;1.70;;;13.60;99.90;;;;;;6193189;23;20172;-94
2021/09/17 08:02:03;;;;;;;5.03;2.07;;;13.60;99.90;;;;;;6217849;23;20176;-95
2021/09/17 08:04:37;;;;;;;4.43;1.73;;;13.70;99.90;;;;;;6218398;23;20176;-94
2021/09/17 08:07:10;;;;;;;4.17;1.70;;;13.60;99.90;;;;;;6192765;23;20200;-94
2021/09/17 08:09:41;;;;;;;5.07;1.60;;;13.60;99.90;;;;;;6218505;23;20203;-95
2021/09/17 08:12:13;;;;;;;5.10;1.80;;;13.60;99.90;;;;;;6217730;23;20168;-93
2021/09/17 08:14:44;;;;;;;3.10;1.77;;;13.60;99.90;;;;;;6218475;23;20192;-93
2021/09/17 08:17:18;;;;;;;3.40;1.80;;;13.60;99.90;;;;;;6217795;23;20562;-93
2021/09/17 08:19:50;;;;;;;4.33;1.67;;;13.60;99.90;;;;;;6193250;23;20231;-94
2021/09/17 08:22:21;;;;;;;6.00;1.77;;;13.60;99.90;;;;;;6217390;23;20268;-93
2021/09/17 08:24:52;;;;;;;4.67;1.77;;;13.60;99.90;;;;;;6192251;23;20514;-94
2021/09/17 08:27:23;;;;;;;8.30;1.73;;;13.60;99.90;;;;;;6218274;23;20219;-93
2021/09/17 08:29:55;;;;;;;3.83;1.90;;;13.60;99.90;;;;;;6218180;23;20176;-94
2021/09/17 08:32:28;;;;;;;5.17;1.70;;;13.60;99.90;;;;;;6219392;23;20180;-94
2021/09/17 08:34:59;;;;;;;2.77;1.63;;;13.60;99.90;;;;;;6192919;23;20178;-93
2021/09/17 08:37:30;;;;;;;4.37;1.43;;;13.70;99.90;;;;;;6217940;23;20180;-94
2021/09/17 08:40:02;;;;;;;3.53;1.70;;;13.70;99.90;;;;;;6220041;23;20196;-94
2021/09/17 08:42:35;;;;;;;5.10;1.73;;;13.70;99.90;;;;;;6217722;23;20215;-94
2021/09/17 08:45:09;;;;;;;6.20;2.03;;;13.70;99.90;;;;;;6218311;23;20247;-94
2021/09/17 08:47:47;;;;;;;4.57;1.90;;;13.60;99.90;;;;;;6220995;23;20224;-95
2021/09/17 08:50:19;;;;;;;3.40;1.53;;;13.60;99.90;;;;;;6219328;23;20172;-95
2021/09/17 08:52:51;;;;;;;2.93;1.47;;;13.60;99.90;;;;;;6219100;23;20564;-95
2021/09/17 08:55:23;;;;;;;3.67;1.63;;;13.60;99.90;;;;;;6219542;23;20172;-94
2021/09/17 08:57:54;;;;;;;3.27;1.50;;;13.60;99.90;;;;;;6193030;23;20176;-94
2021/09/17 09:00:45;;;;;;;3.93;1.50;;;13.60;99.90;;;;;;6217896;23;20188;-95
2021/09/17 09:03:32;;;;;;;4.17;1.70;;;13.70;99.90;;;;;;6220237;23;20173;-94
2021/09/17 09:06:14;;;;;;;7.33;2.10;;;13.70;99.90;;;;;;6221228;23;20561;-95
2021/09/17 09:08:46;;;;;;;3.20;1.50;;;13.70;99.90;;;;;;6221425;23;20244;-94
2021/09/17 09:11:18;;;;;;;3.20;1.53;;;13.70;99.90;;;;;;6217316;23;20179;-94
2021/09/17 09:14:00;;;;;;;4.33;1.70;;;13.70;99.90;;;;;;6222605;23;20233;-95
2021/09/17 09:16:32;;;;;;;5.23;1.50;;;13.70;99.90;;;;;;6213605;23;20180;-93
2021/09/17 09:19:27;;;;;;;4.27;1.97;;;13.70;99.90;;;;;;6241532;23;20184;-94
2021/09/17 09:22:12;;;;;;;6.60;1.50;;;13.70;99.90;;;;;;6227233;23;20184;-93
2021/09/17 09:24:45;;;;;;;5.03;1.70;;;13.70;99.90;;;;;;6219436;23;20198;-94
2021/09/17 09:27:19;;;;;;;4.67;1.83;;;13.70;99.90;;;;;;6219268;23;20204;-94
2021/09/17 09:29:51;;;;;;;4.23;1.60;;;13.70;99.90;;;;;;6221780;23;20173;-94
2021/09/17 09:32:30;;;;;;;9.03;2.57;;;13.60;99.90;;;;;;6217962;23;20169;-94
2021/09/17 09:35:06;;;;;;;4.13;1.83;;;13.50;99.90;;;;;;6219649;23;20600;-92
2021/09/17 09:37:39;;;;;;;5.60;1.90;;;13.50;99.90;;;;;;6218382;23;20175;-93
2021/09/17 09:40:16;;;;;;;2.90;1.70;;;13.60;99.90;;;;;;6218955;23;20623;-93
2021/09/17 09:42:49;;;;;;;3.90;1.67;;;13.60;99.90;;;;;;6219253;23;20202;-93
2021/09/17 09:45:22;;;;;;;6.87;1.57;;;13.60;99.90;;;;;;6220323;23;20175;-93
2021/09/17 09:47:54;;;;;;;4.43;1.70;;;13.50;99.90;;;;;;6220314;23;20215;-94
2021/09/17 09:50:31;;;;;;;5.97;1.60;;;13.60;99.90;;;;;;6194227;23;20164;-95
2021/09/17 09:53:04;;;;;;;6.33;1.87;;;13.60;99.90;;;;;;6220416;23;20405;-95
2021/09/17 09:55:35;;;;;;;3.13;1.70;;;13.60;99.90;;;;;;6220460;23;20213;-94
2021/09/17 09:58:08;;;;;;;4.23;1.87;;;13.60;99.90;;;;;;6219465;23;20227;-95
2021/09/17 10:00:40;;;;;;;2.63;1.73;;;13.70;99.90;;;;;;6220533;23;20196;-94
2021/09/17 10:03:12;;;;;;;2.50;1.60;;;13.70;99.90;;;;;;6219580;23;20227;-94
2021/09/17 10:05:47;;;;;;;4.60;2.00;;;13.60;99.90;;;;;;6220071;23;20192;-95
2021/09/17 10:08:20;;;;;;;6.17;1.60;;;13.70;99.90;;;;;;6219552;23;20192;-95
2021/09/17 10:10:52;;;;;;;5.17;1.73;;;13.60;99.90;;;;;;6218116;23;20180;-94
2021/09/17 10:13:23;;;;;;;9.07;2.53;;;13.60;99.90;;;;;;6221370;23;20200;-95
2021/09/17 10:15:59;;;;;;;3.77;1.90;;;13.60;99.90;;;;;;6195155;23;20172;-93
2021/09/17 10:18:35;;;;;;;9.17;1.70;;;13.60;99.90;;;;;;6219203;23;20216;-94
2021/09/17 10:21:08;;;;;;;4.63;1.77;;;13.60;99.90;;;;;;6217820;23;20169;-93
2021/09/17 10:23:43;;;;;;;3.33;1.60;;;13.60;99.90;;;;;;6218982;23;20184;-93
2021/09/17 10:26:15;;;;;;;6.03;1.70;;;13.60;99.90;;;;;;6219154;23;20638;-93
2021/09/17 10:29:07;;;;;;;3.23;1.80;;;13.60;99.90;;;;;;6219337;23;20207;-94
2021/09/17 10:31:45;;;;;;;3.53;1.63;;;13.60;99.90;;;;;;6218311;23;20192;-93
2021/09/17 10:34:38;;;;;;;3.83;1.57;;;13.50;99.90;;;;;;6219052;23;20244;-93
2021/09/17 10:37:16;;;;;;;4.73;1.90;;;13.50;99.90;;;;;;6219513;23;20208;-93
2021/09/17 10:40:08;;;;;;;6.37;1.90;;;13.50;99.90;;;;;;6221924;23;20165;-93
2021/09/17 10:42:40;;;;;;;4.40;1.77;;;13.50;99.90;;;;;;6218400;23;20193;-94
2021/09/17 10:45:19;;;;;;;4.20;1.70;;;13.60;99.90;;;;;;6218384;23;20196;-94
2021/09/17 10:48:03;;;;;;;3.20;1.77;;;13.60;99.90;;;;;;6221111;23;20199;-95
2021/09/17 10:50:50;;;;;;;3.93;1.90;;;13.60;99.90;;;;;;6220096;23;20193;-95
2021/09/17 10:53:59;;;;;;;6.50;1.80;;;13.60;99.90;;;;;;6218370;23;20173;-95
2021/09/17 10:56:55;;;;;;;3.73;1.73;;;13.50;99.90;;;;;;6069304;23;20194;-95
2021/09/17 10:59:28;;;;;;;3.93;1.80;;;13.50;99.90;;;;;;6201117;23;20222;-94
2021/09/17 11:02:00;;;;;;;3.80;2.13;;;13.50;99.90;;;;;;6218153;23;20242;-94
2021/09/17 11:04:33;;;;;;;6.93;2.13;;;13.50;99.90;;;;;;6218570;23;20176;-94
2021/09/17 11:07:34;;;;;;;4.30;1.70;;;13.50;99.90;;;;;;6221731;23;20180;-94
2021/09/17 11:10:25;;;;;;;4.53;2.40;;;13.60;99.90;;;;;;6194627;23;20208;-94
2021/09/17 11:13:18;;;;;;;6.17;2.10;;;13.50;99.90;;;;;;6218892;23;20176;-95
2021/09/17 11:15:49;;;;;;;4.30;2.00;;;13.50;99.90;;;;;;6220250;23;20519;-95
2021/09/17 11:18:20;;;;;;;7.10;2.47;;;13.50;99.90;;;;;;6194161;23;20176;-93
2021/09/17 11:20:51;;;;;;;3.70;2.20;;;13.50;99.90;;;;;;6220786;23;20237;-93
2021/09/17 11:23:36;;;;;;;6.67;2.47;;;13.40;99.90;;;;;;6221917;23;20184;-93
2021/09/17 11:26:09;;;;;;;8.23;2.13;;;13.40;99.90;;;;;;6222505;23;20196;-93
2021/09/17 11:28:42;;;;;;;5.47;2.30;;;13.30;99.90;;;;;;6226960;23;20200;-94
2021/09/17 11:31:15;;;;;;;4.07;1.73;;;13.30;99.90;;;;;;6238856;23;20181;-93
2021/09/17 11:33:57;;;;;;;4.70;2.73;;;13.40;99.90;;;;;;6213329;23;20179;-93
2021/09/17 11:36:39;;;;;;;9.43;4.33;;;13.40;99.90;;;;;;6235531;23;20183;-93
2021/09/17 11:39:21;;;;;;;8.23;3.77;;;13.60;99.90;;;;;;6219547;23;20172;-93
2021/09/17 11:41:55;;;;;;;8.30;3.93;;;13.90;99.90;;;;;;6219588;23;20545;-93
2021/09/17 11:44:39;;;;;;;6.93;3.20;;;14.00;99.90;;;;;;6220522;23;20188;-93
2021/09/17 11:47:12;;;;;;;6.23;2.70;;;14.20;99.90;;;;;;6218755;23;20255;-94
2021/09/17 11:49:44;;;;;;;7.00;3.33;;;14.20;99.90;;;;;;6218371;23;20576;-94
2021/09/17 11:52:19;;;;;;;7.73;3.37;;;14.20;99.90;;;;;;6217654;23;20200;-93
2021/09/17 11:54:58;;;;;;;7.80;3.17;;;14.20;99.90;;;;;;6218509;23;20515;-94
2021/09/17 11:57:32;;;;;;;11.57;3.70;;;14.30;99.90;;;;;;6218145;23;20588;-93
2021/09/17 12:00:08;;;;;;;5.87;2.83;;;14.30;99.90;;;;;;6218254;23;20183;-93
2021/09/17 12:02:39;;;;;;;6.77;2.80;;;14.30;99.90;;;;;;6217181;23;20188;-93
2021/09/17 12:05:15;;;;;;;6.53;2.43;;;14.20;99.90;;;;;;6218357;23;20172;-94
2021/09/17 12:07:49;;;;;;;6.43;3.17;;;14.20;99.90;;;;;;6193320;23;20216;-93
2021/09/17 12:10:26;;;;;;;13.20;3.33;;;14.20;99.90;;;;;;6218266;23;20168;-93
2021/09/17 12:13:02;;;;;;;9.57;2.60;;;14.10;99.90;;;;;;6217870;23;20172;-93
2021/09/17 12:15:38;;;;;;;5.70;2.50;;;14.00;99.90;;;;;;6219136;23;20263;-93
2021/09/17 12:18:10;;;;;;;8.83;3.10;;;13.90;99.90;;;;;;6218311;23;20196;-92
2021/09/17 12:20:48;;;;;;;7.07;3.40;;;13.90;99.90;;;;;;6220985;23;20230;-92
2021/09/17 12:23:21;;;;;;;5.17;2.70;;;13.90;99.90;;;;;;6241842;23;20200;-92
2021/09/17 12:25:53;;;;;;;5.80;2.83;;;13.80;99.90;;;;;;6242029;23;20160;-92
2021/09/17 12:28:24;;;;;;;7.17;3.00;;;13.80;99.90;;;;;;6241943;23;20198;-92
2021/09/17 12:30:57;;;;;;;5.40;2.50;;;13.70;99.90;;;;;;6241730;23;20156;-93
2021/09/17 12:33:32;;;;;;;7.10;3.10;;;13.70;99.90;;;;;;6241718;23;20179;-91
2021/09/17 12:36:12;;;;;;;6.43;2.50;;;13.60;99.90;;;;;;6241763;23;20164;-93
2021/09/17 12:38:44;;;;;;;5.93;2.70;;;13.60;99.90;;;;;;6224592;23;20677;-92
2021/09/17 12:41:16;;;;;;;10.47;3.20;;;13.50;99.90;;;;;;6218918;23;20169;-93
2021/09/17 12:44:12;;;;;;;4.87;2.83;;;13.50;99.90;;;;;;6218223;23;20521;-93
2021/09/17 12:46:46;;;;;;;6.07;3.20;;;13.40;99.90;;;;;;6217711;23;20176;-94
2021/09/17 12:49:18;;;;;;;6.57;2.90;;;13.40;99.90;;;;;;6218639;23;20274;-94
2021/09/17 12:51:56;;;;;;;5.00;2.47;;;13.30;99.90;;;;;;6217038;23;20193;-94
2021/09/17 12:54:36;;;;;;;7.37;3.03;;;13.30;99.90;;;;;;6217604;23;20184;-94
2021/09/17 12:57:26;;;;;;;6.43;2.90;;;13.20;99.90;;;;;;6220257;23;20169;-94
2021/09/17 13:00:06;;;;;;;6.90;3.37;;;13.20;99.90;;;;;;6219847;23;20172;-94
2021/09/17 13:02:39;;;;;;;4.43;2.60;;;13.10;99.90;;;;;;6218062;23;20176;-93
2021/09/17 13:05:11;;;;;;;6.60;3.13;;;13.10;99.90;;;;;;6218131;23;20203;-92
2021/09/17 13:07:42;;;;;;;6.27;3.20;;;13.10;99.90;;;;;;6218438;23;20183;-92
2021/09/17 13:10:15;;;;;;;6.97;3.10;;;13.10;99.90;;;;;;6218274;23;20243;-92
2021/09/17 13:12:46;;;;;;;5.23;2.93;;;13.00;99.90;;;;;;6217067;23;20180;-94
2021/09/17 13:15:16;;;;;;;6.40;3.00;;;13.00;99.90;;;;;;6217444;23;20195;-94
2021/09/17 13:17:50;;;;;;;3.57;2.90;;;13.00;99.90;;;;;;6218006;23;20184;-92
2021/09/17 13:20:22;;;;;;;6.43;3.30;;;13.00;99.90;;;;;;6219314;23;20183;-93
2021/09/17 13:22:55;;;;;;;8.33;2.87;;;13.00;99.90;;;;;;6218220;23;20215;-93
2021/09/17 13:25:27;;;;;;;9.93;3.13;;;12.90;99.90;;;;;;6219977;23;20661;-94
2021/09/17 13:27:59;;;;;;;6.40;3.03;;;12.90;99.90;;;;;;6218652;23;20515;-95
2021/09/17 13:30:31;;;;;;;5.80;2.97;;;12.90;99.90;;;;;;6219093;23;20586;-94
2021/09/17 13:33:05;;;;;;;5.33;3.40;;;12.90;99.90;;;;;;6218978;23;20487;-93
2021/09/17 13:35:38;;;;;;;6.33;3.10;;;12.90;99.90;;;;;;6219186;23;20192;-93
2021/09/17 13:38:10;;;;;;;5.57;3.27;;;12.80;99.90;;;;;;6218185;23;20179;-93